Algernon, Nebraska
Current Conditions -  °F | °C
As of 1:53 AM on Wednesday 22 Oct 2014 (Local Time) from KBBW Reporting Station
Clear Clear  
Wind Chill: 58°   Ceiling: Unl
Heat Index: 58°   Visibility: 10mi
Dew Point: 54°   Wind: 8mph
Humidity: 87%   Direction: 140°SE
Pressure: 29.93"   Gusts: NA
Location:  41.1632°N, 99.3112°W
Report Text: KBBW 220653Z AUTO 14007KT 10SM CLR 14/12 A2993 RMK AO2 SLP120 T01440122
Loading
Personal Weather Stations






























Interactive Weather Map New forecast layout! Learn more

10-Day Weather Forecast

Advertisements
Track Severe Weather on mobile